createdAt,value
2023-01-17T00:02:06.832Z,3.07
2023-01-17T00:04:52.572Z,6.13
2023-01-17T00:07:36.838Z,3.00
2023-01-17T00:10:08.718Z,3.63
2023-01-17T00:12:37.070Z,7.07
2023-01-17T00:15:07.415Z,4.03
2023-01-17T00:17:35.433Z,6.80
2023-01-17T00:20:21.453Z,4.23
2023-01-17T00:23:06.930Z,6.03
2023-01-17T00:25:56.896Z,8.00
2023-01-17T00:28:23.820Z,2.93
2023-01-17T00:30:50.771Z,5.73
2023-01-17T00:33:17.759Z,3.53
2023-01-17T00:35:44.718Z,6.57
2023-01-17T00:38:13.051Z,5.47
2023-01-17T00:40:42.670Z,3.30
2023-01-17T00:43:29.868Z,2.03
2023-01-17T00:46:15.321Z,3.20
2023-01-17T00:49:01.768Z,1.87
2023-01-17T00:51:48.783Z,1.87
2023-01-17T00:54:34.871Z,2.73
2023-01-17T00:57:22.901Z,2.33
2023-01-17T01:00:08.737Z,2.37
2023-01-17T01:02:55.403Z,1.50
2023-01-17T01:05:41.484Z,2.37
2023-01-17T01:08:39.985Z,1.17
2023-01-17T01:11:27.115Z,3.17
2023-01-17T01:14:14.415Z,1.47
2023-01-17T01:17:00.304Z,1.73
2023-01-17T01:19:45.763Z,1.77
2023-01-17T01:22:31.416Z,1.77
2023-01-17T01:25:17.259Z,1.97
2023-01-17T01:28:03.155Z,2.53
2023-01-17T01:30:50.486Z,1.37
2023-01-17T01:33:20.775Z,3.33
2023-01-17T01:35:50.505Z,3.17
2023-01-17T01:38:18.967Z,5.67
2023-01-17T01:40:49.358Z,3.47
2023-01-17T01:43:19.815Z,5.40
2023-01-17T01:45:53.868Z,5.10
2023-01-17T01:48:34.750Z,4.30
2023-01-17T01:51:06.433Z,6.90
2023-01-17T01:53:38.278Z,3.57
2023-01-17T01:56:10.685Z,3.40
2023-01-17T01:58:40.342Z,6.07
2023-01-17T02:01:10.275Z,3.10
2023-01-17T02:03:40.760Z,2.27
2023-01-17T02:06:17.758Z,3.50
2023-01-17T02:08:46.293Z,8.10
2023-01-17T02:11:14.385Z,3.30
2023-01-17T02:13:43.924Z,4.53
2023-01-17T02:16:21.163Z,3.23
2023-01-17T02:19:00.671Z,1.40
2023-01-17T02:21:33.258Z,1.70
2023-01-17T02:24:55.376Z,2.77
2023-01-17T02:27:27.012Z,1.80
2023-01-17T02:30:28.585Z,1.77
2023-01-17T02:33:17.864Z,1.23
2023-01-17T02:35:54.447Z,3.37
2023-01-17T02:38:33.120Z,3.87
2023-01-17T02:41:05.531Z,2.17
2023-01-17T02:43:35.159Z,2.43
2023-01-17T02:46:04.780Z,2.53
2023-01-17T02:48:34.559Z,3.13
2023-01-17T02:51:19.914Z,2.80
2023-01-17T02:54:00.177Z,2.20
2023-01-17T02:56:44.606Z,1.63
2023-01-17T02:59:21.751Z,1.83
2023-01-17T03:02:04.385Z,2.53
2023-01-17T03:04:39.491Z,2.00
2023-01-17T03:07:12.554Z,2.03
2023-01-17T03:09:43.739Z,2.47
2023-01-17T03:12:11.713Z,1.67
2023-01-17T03:14:39.888Z,1.93
2023-01-17T03:17:09.408Z,1.83
2023-01-17T03:19:37.369Z,2.07
2023-01-17T03:22:05.389Z,1.90
2023-01-17T03:24:33.303Z,2.63
2023-01-17T03:27:01.201Z,4.13
2023-01-17T03:29:29.167Z,4.17
2023-01-17T03:31:57.418Z,1.53
2023-01-17T03:34:26.770Z,2.27
2023-01-17T03:36:54.907Z,2.87
2023-01-17T03:39:22.989Z,3.60
2023-01-17T03:41:51.405Z,1.80
2023-01-17T03:44:19.491Z,1.50
2023-01-17T03:46:47.508Z,1.30
2023-01-17T03:49:16.732Z,3.03
2023-01-17T03:51:46.091Z,3.07
2023-01-17T03:54:14.060Z,3.47
2023-01-17T03:56:41.985Z,3.20
2023-01-17T03:59:12.238Z,2.00
2023-01-17T04:01:41.264Z,1.37
2023-01-17T04:04:09.620Z,1.87
2023-01-17T04:06:37.551Z,2.70
2023-01-17T04:09:06.886Z,3.67
2023-01-17T04:11:35.043Z,3.80
2023-01-17T04:14:02.992Z,3.10
2023-01-17T04:16:32.546Z,2.33
2023-01-17T04:19:00.549Z,2.10
2023-01-17T04:21:28.576Z,3.40
2023-01-17T04:23:56.618Z,2.67
2023-01-17T04:26:26.141Z,5.20
2023-01-17T04:28:54.099Z,4.30
2023-01-17T04:31:22.132Z,4.77
2023-01-17T04:33:50.078Z,6.47
2023-01-17T04:36:18.100Z,9.13
2023-01-17T04:38:46.103Z,6.23
2023-01-17T04:41:14.101Z,8.03
2023-01-17T04:43:43.416Z,9.40
2023-01-17T04:46:11.437Z,8.77
2023-01-17T04:48:39.381Z,11.03
2023-01-17T04:51:07.560Z,11.37
2023-01-17T04:53:35.513Z,11.40
2023-01-17T04:56:03.679Z,11.37
2023-01-17T04:58:33.361Z,12.23
2023-01-17T05:01:06.940Z,12.27
2023-01-17T05:03:35.674Z,11.73
2023-01-17T05:06:04.206Z,11.80
2023-01-17T05:08:32.194Z,13.53
2023-01-17T05:11:00.120Z,11.43
2023-01-17T05:13:28.066Z,14.93
2023-01-17T05:15:57.667Z,11.53
2023-01-17T05:18:27.051Z,13.70
2023-01-17T05:20:55.039Z,13.67
2023-01-17T05:23:22.970Z,11.03
2023-01-17T05:25:50.973Z,10.63
2023-01-17T05:28:19.012Z,8.27
2023-01-17T05:30:46.970Z,11.07
2023-01-17T05:33:14.880Z,14.97
2023-01-17T05:35:44.263Z,8.53
2023-01-17T05:38:12.235Z,9.33
2023-01-17T05:40:40.256Z,7.83
2023-01-17T05:43:08.283Z,8.70
2023-01-17T05:45:36.680Z,10.13
2023-01-17T05:48:05.466Z,7.43
2023-01-17T05:50:34.845Z,12.00
2023-01-17T05:53:06.098Z,9.10
2023-01-17T05:55:34.400Z,8.90
2023-01-17T05:58:03.085Z,9.33
2023-01-17T06:00:31.678Z,9.40
2023-01-17T06:03:01.171Z,12.93
2023-01-17T06:05:30.198Z,7.60
2023-01-17T06:07:58.635Z,9.23
2023-01-17T06:10:29.482Z,11.20
2023-01-17T06:13:06.335Z,12.27
2023-01-17T06:15:36.155Z,13.73
2023-01-17T06:18:08.295Z,11.53
2023-01-17T06:20:36.625Z,12.10
2023-01-17T06:23:06.580Z,13.27
2023-01-17T06:25:39.545Z,18.20
2023-01-17T06:28:07.996Z,10.67
2023-01-17T06:30:36.640Z,11.70
2023-01-17T06:33:05.536Z,13.50
2023-01-17T06:35:33.910Z,12.67
2023-01-17T06:38:02.048Z,13.30
2023-01-17T06:40:30.438Z,13.70
2023-01-17T06:43:02.695Z,15.97
2023-01-17T06:45:31.253Z,14.80
2023-01-17T06:48:24.576Z,10.90
2023-01-17T06:54:10.955Z,11.47
2023-01-17T06:56:39.158Z,11.03
2023-01-17T06:59:08.719Z,14.53
2023-01-17T07:01:36.731Z,13.10
2023-01-17T07:04:05.587Z,14.00
2023-01-17T07:06:33.533Z,13.73
2023-01-17T07:09:07.593Z,12.83
2023-01-17T07:11:39.068Z,12.87
2023-01-17T07:14:13.391Z,17.37
2023-01-17T07:16:43.596Z,12.77
2023-01-17T07:19:11.526Z,14.27
2023-01-17T07:21:40.391Z,13.63
2023-01-17T07:24:08.957Z,15.83
2023-01-17T07:26:40.109Z,14.77
2023-01-17T07:29:09.549Z,13.10
2023-01-17T07:31:38.727Z,17.07
2023-01-17T07:34:06.785Z,12.33
2023-01-17T07:36:34.853Z,18.47
2023-01-17T07:39:04.849Z,13.47
2023-01-17T07:41:41.132Z,14.87
2023-01-17T07:44:11.782Z,16.23
2023-01-17T07:46:39.771Z,15.80
2023-01-17T07:49:07.816Z,13.60
2023-01-17T07:51:35.762Z,18.80
2023-01-17T07:54:04.124Z,15.00
2023-01-17T07:56:32.084Z,15.00
2023-01-17T07:59:01.800Z,17.23
2023-01-17T08:01:31.290Z,15.77
2023-01-17T08:03:59.307Z,19.60
2023-01-17T08:06:29.172Z,15.83
2023-01-17T08:08:59.369Z,14.20
2023-01-17T08:11:27.602Z,15.50
2023-01-17T08:13:59.260Z,19.40
2023-01-17T08:16:29.739Z,15.77
2023-01-17T08:18:59.226Z,17.93
2023-01-17T08:21:27.204Z,16.13
2023-01-17T08:23:55.278Z,17.37
2023-01-17T08:26:23.824Z,17.87
2023-01-17T08:28:56.851Z,18.80
2023-01-17T08:31:25.226Z,16.53
2023-01-17T08:33:53.322Z,15.57
2023-01-17T08:36:22.610Z,13.70
2023-01-17T08:38:52.757Z,12.97
2023-01-17T08:41:21.015Z,15.07
2023-01-17T08:43:49.626Z,16.23
2023-01-17T08:46:44.069Z,18.60
2023-01-17T08:49:12.863Z,16.23
2023-01-17T08:51:42.342Z,19.13
2023-01-17T08:54:12.901Z,16.87
2023-01-17T08:56:42.695Z,17.47
2023-01-17T08:59:11.916Z,17.20
2023-01-17T09:01:41.746Z,15.43
2023-01-17T09:04:10.948Z,16.03
2023-01-17T09:06:40.165Z,15.77
2023-01-17T09:09:11.082Z,15.53
2023-01-17T09:11:39.159Z,17.97
2023-01-17T09:14:07.164Z,15.10
2023-01-17T09:16:35.269Z,18.00
2023-01-17T09:19:03.298Z,13.90
2023-01-17T09:21:31.287Z,12.93
2023-01-17T09:23:59.239Z,15.07
2023-01-17T09:26:30.891Z,12.80
2023-01-17T09:28:59.527Z,12.53
2023-01-17T09:31:28.255Z,15.00
2023-01-17T09:33:58.143Z,13.10
2023-01-17T09:36:28.886Z,11.00
2023-01-17T09:38:58.200Z,15.63
2023-01-17T09:41:30.812Z,17.47
2023-01-17T09:44:05.660Z,14.03
2023-01-17T09:46:39.977Z,13.13
2023-01-17T09:49:09.976Z,16.80
2023-01-17T09:51:38.317Z,14.23
2023-01-17T09:54:07.010Z,12.70
2023-01-17T09:56:44.051Z,17.43
2023-01-17T09:59:33.144Z,13.23
2023-01-17T10:02:19.641Z,16.13
2023-01-17T10:05:04.866Z,13.37
2023-01-17T10:07:44.356Z,13.00
2023-01-17T10:10:27.857Z,15.87
2023-01-17T10:13:02.987Z,12.37
2023-01-17T10:16:01.725Z,15.83
2023-01-17T10:19:04.455Z,11.53
2023-01-17T10:21:46.032Z,12.77
2023-01-17T10:24:46.863Z,10.77
2023-01-17T10:27:21.203Z,11.53
2023-01-17T10:29:51.836Z,13.20
2023-01-17T10:32:22.734Z,10.57
2023-01-17T10:34:52.718Z,11.10
2023-01-17T10:37:25.322Z,10.23
2023-01-17T10:39:57.046Z,11.30
2023-01-17T10:42:30.027Z,11.20
2023-01-17T10:45:06.536Z,10.07
2023-01-17T10:47:39.446Z,10.70
2023-01-17T10:50:13.137Z,11.10
2023-01-17T10:52:47.067Z,11.80
2023-01-17T10:55:28.721Z,9.67
2023-01-17T10:57:58.888Z,11.33
2023-01-17T11:00:43.799Z,11.57
2023-01-17T11:03:13.295Z,10.97
2023-01-17T11:05:43.087Z,11.33
2023-01-17T11:08:13.408Z,12.37
2023-01-17T11:10:44.739Z,10.07
2023-01-17T11:13:29.076Z,10.00
2023-01-17T11:16:00.885Z,9.57
2023-01-17T11:18:30.932Z,10.23
2023-01-17T11:21:12.182Z,11.87
2023-01-17T11:23:42.512Z,14.43
2023-01-17T11:26:13.745Z,12.90
2023-01-17T11:28:42.512Z,9.80
2023-01-17T11:31:27.417Z,11.93
2023-01-17T11:34:17.118Z,9.07
2023-01-17T11:36:45.750Z,9.37
2023-01-17T11:39:27.384Z,9.30
2023-01-17T11:41:55.875Z,6.63
2023-01-17T11:44:27.290Z,11.87
2023-01-17T11:47:19.181Z,10.20
2023-01-17T11:49:48.727Z,11.30
2023-01-17T11:52:23.233Z,9.17
2023-01-17T11:54:53.353Z,8.17
2023-01-17T11:57:24.796Z,9.03
2023-01-17T12:00:04.605Z,8.10
2023-01-17T12:03:13.620Z,9.27
2023-01-17T12:05:51.468Z,6.87
2023-01-17T12:08:31.378Z,7.87
2023-01-17T12:11:05.564Z,6.57
2023-01-17T12:14:03.117Z,7.10
2023-01-17T12:16:58.772Z,6.37
2023-01-17T12:19:41.267Z,6.60
2023-01-17T12:22:25.130Z,7.73
2023-01-17T12:25:23.796Z,5.90
2023-01-17T12:28:08.619Z,3.83
2023-01-17T12:30:50.701Z,6.00
2023-01-17T12:33:26.213Z,7.20
2023-01-17T12:35:59.773Z,6.97
2023-01-17T12:38:34.005Z,6.37
2023-01-17T12:41:06.978Z,6.53
2023-01-17T12:43:38.039Z,4.30
2023-01-17T12:46:12.813Z,6.43
2023-01-17T12:48:42.105Z,6.13
2023-01-17T12:51:19.302Z,6.83
2023-01-17T12:53:53.997Z,8.27
2023-01-17T12:56:27.688Z,10.83
2023-01-17T12:59:01.751Z,7.50
2023-01-17T13:01:31.710Z,8.57
2023-01-17T13:04:09.534Z,6.33
2023-01-17T13:06:50.852Z,7.60
2023-01-17T13:09:23.957Z,7.57
2023-01-17T13:11:57.036Z,5.60
2023-01-17T13:14:25.227Z,6.90
2023-01-17T13:16:58.849Z,6.97
2023-01-17T13:19:35.757Z,3.97
2023-01-17T13:22:08.838Z,3.90
2023-01-17T13:24:46.433Z,3.47
2023-01-17T13:27:46.659Z,4.97
2023-01-17T13:30:36.419Z,5.40
2023-01-17T13:33:29.696Z,6.37
2023-01-17T13:36:10.083Z,6.13
2023-01-17T13:38:55.887Z,6.47
2023-01-17T13:41:46.744Z,7.97
2023-01-17T13:44:25.318Z,6.93
2023-01-17T13:46:58.781Z,5.47
2023-01-17T13:49:47.535Z,6.10
2023-01-17T13:52:33.180Z,3.33
2023-01-17T13:55:04.636Z,5.40
2023-01-17T13:57:43.573Z,5.27
2023-01-17T14:00:59.455Z,3.83
2023-01-17T14:04:05.026Z,4.57
2023-01-17T14:06:38.525Z,5.33
2023-01-17T14:09:20.147Z,4.90
2023-01-17T14:11:59.133Z,6.87
2023-01-17T14:14:47.598Z,7.77
2023-01-17T14:17:38.329Z,3.77
2023-01-17T14:20:43.703Z,4.17
2023-01-17T14:23:41.452Z,4.43
2023-01-17T14:26:39.252Z,5.03
2023-01-17T14:29:47.407Z,5.87
2023-01-17T14:32:17.066Z,7.00
2023-01-17T14:34:46.528Z,3.83
2023-01-17T14:37:21.192Z,7.50
2023-01-17T14:39:50.848Z,4.97
2023-01-17T14:42:21.728Z,6.17
2023-01-17T14:44:59.160Z,4.63
2023-01-17T14:47:30.997Z,7.13
2023-01-17T14:50:22.823Z,6.03
2023-01-17T14:53:08.406Z,4.70
2023-01-17T14:55:36.668Z,7.03
2023-01-17T14:58:05.090Z,6.90
2023-01-17T15:00:40.632Z,6.33
2023-01-17T15:03:12.636Z,6.27
2023-01-17T15:05:42.563Z,6.90
2023-01-17T15:08:14.116Z,6.67
2023-01-17T15:10:50.103Z,7.27
2023-01-17T15:13:24.597Z,7.10
2023-01-17T15:16:07.155Z,4.77
2023-01-17T15:18:39.315Z,4.93
2023-01-17T15:21:10.873Z,4.73
2023-01-17T15:23:41.557Z,6.33
2023-01-17T15:26:13.937Z,6.43
2023-01-17T15:28:44.696Z,4.90
2023-01-17T15:31:17.608Z,4.40
2023-01-17T15:33:47.633Z,5.83
2023-01-17T15:36:28.224Z,4.47
2023-01-17T15:39:00.075Z,7.80
2023-01-17T15:41:31.432Z,7.37
2023-01-17T15:43:59.375Z,4.33
2023-01-17T15:46:33.831Z,5.17
2023-01-17T15:49:19.336Z,6.60
2023-01-17T15:51:51.034Z,7.70
2023-01-17T15:54:34.249Z,7.37
2023-01-17T15:57:07.258Z,7.80
2023-01-17T15:59:45.760Z,7.20
2023-01-17T16:02:43.727Z,7.73
2023-01-17T16:05:41.946Z,7.83
2023-01-17T16:08:26.515Z,6.63
2023-01-17T16:10:57.981Z,5.83
2023-01-17T16:13:26.211Z,5.97
2023-01-17T16:15:54.397Z,4.43
2023-01-17T16:18:25.847Z,4.70
2023-01-17T16:20:59.848Z,3.93
2023-01-17T16:23:27.927Z,4.93
2023-01-17T16:25:56.062Z,7.00
2023-01-17T16:28:24.362Z,8.43
2023-01-17T16:30:53.902Z,6.33
2023-01-17T16:33:23.355Z,5.40
2023-01-17T16:35:55.306Z,5.63
2023-01-17T16:38:23.406Z,6.73
2023-01-17T16:40:51.403Z,6.87
2023-01-17T16:43:20.840Z,8.53
2023-01-17T16:45:52.009Z,39.30
2023-01-17T16:48:20.215Z,11.37
2023-01-17T16:50:52.910Z,8.80
2023-01-17T16:53:24.633Z,8.77
2023-01-17T16:55:56.176Z,8.37
2023-01-17T16:58:24.850Z,9.97
2023-01-17T17:00:55.167Z,21.97
2023-01-17T17:03:26.430Z,30.13
2023-01-17T17:06:00.197Z,13.50
2023-01-17T17:08:29.960Z,14.63
2023-01-17T17:11:08.833Z,18.20
2023-01-17T17:13:36.971Z,15.53
2023-01-17T17:16:11.507Z,14.40
2023-01-17T17:18:39.573Z,10.07
2023-01-17T17:21:09.278Z,11.23
2023-01-17T17:23:37.285Z,10.37
2023-01-17T17:26:05.381Z,11.60
2023-01-17T17:28:33.632Z,21.10
2023-01-17T17:31:06.874Z,14.87
2023-01-17T17:33:36.811Z,17.83
2023-01-17T17:36:07.031Z,17.50
2023-01-17T17:38:36.528Z,12.17
2023-01-17T17:41:10.008Z,16.93
2023-01-17T17:43:40.436Z,53.00
2023-01-17T17:46:09.321Z,43.10
2023-01-17T17:48:37.723Z,28.63
2023-01-17T17:51:06.415Z,21.20
2023-01-17T17:53:35.863Z,24.90
2023-01-17T17:56:05.415Z,20.00
2023-01-17T17:58:34.600Z,19.07
2023-01-17T18:01:07.385Z,21.93
2023-01-17T18:03:35.457Z,22.27
2023-01-17T18:06:05.081Z,18.43
2023-01-17T18:08:33.827Z,21.03
2023-01-17T18:11:04.890Z,21.67
2023-01-17T18:13:33.963Z,18.63
2023-01-17T18:16:05.406Z,21.70
2023-01-17T18:18:33.992Z,22.73
2023-01-17T18:21:09.918Z,25.40
2023-01-17T18:23:39.602Z,26.77
2023-01-17T18:26:16.687Z,25.40
2023-01-17T18:28:45.219Z,30.00
2023-01-17T18:31:13.718Z,30.00
2023-01-17T18:33:42.215Z,32.47
2023-01-17T18:36:11.834Z,29.13
2023-01-17T18:38:40.673Z,26.83
2023-01-17T18:41:12.844Z,32.27
2023-01-17T18:43:41.235Z,30.83
2023-01-17T18:46:10.152Z,37.50
2023-01-17T18:48:38.917Z,38.67
2023-01-17T18:51:08.650Z,32.40
2023-01-17T18:53:38.447Z,36.10
2023-01-17T18:56:11.088Z,31.03
2023-01-17T18:58:40.881Z,35.40
2023-01-17T19:01:11.310Z,29.93
2023-01-17T19:03:40.280Z,30.70
2023-01-17T19:06:10.663Z,27.27
2023-01-17T19:08:40.112Z,25.17
2023-01-17T19:11:09.868Z,26.47
2023-01-17T19:13:39.350Z,28.03
2023-01-17T19:16:10.091Z,28.87
2023-01-17T19:18:38.209Z,27.40
2023-01-17T19:21:08.115Z,26.57
2023-01-17T19:23:37.058Z,28.73
2023-01-17T19:26:06.488Z,24.30
2023-01-17T19:28:38.931Z,22.57
2023-01-17T19:31:09.313Z,25.83
2023-01-17T19:33:38.868Z,25.43
2023-01-17T19:36:10.407Z,24.37
2023-01-17T19:38:38.816Z,22.53
2023-01-17T19:41:12.128Z,25.13
2023-01-17T19:43:42.988Z,28.03
2023-01-17T19:46:12.099Z,25.23
2023-01-17T19:48:40.816Z,21.10
2023-01-17T19:51:10.489Z,23.00
2023-01-17T19:53:39.472Z,21.47
2023-01-17T19:56:09.029Z,25.13
2023-01-17T19:58:37.732Z,20.23
2023-01-17T20:01:08.835Z,21.80
2023-01-17T20:03:37.781Z,19.37
2023-01-17T20:06:06.901Z,19.40
2023-01-17T20:08:35.505Z,19.03
2023-01-17T20:11:04.875Z,22.97
2023-01-17T20:13:33.037Z,20.43
2023-01-17T20:16:03.822Z,21.80
2023-01-17T20:18:34.285Z,21.53
2023-01-17T20:21:06.414Z,19.37
2023-01-17T20:23:36.098Z,23.30
2023-01-17T20:26:04.485Z,19.87
2023-01-17T20:28:33.707Z,17.47
2023-01-17T20:31:07.486Z,22.70
2023-01-17T20:33:37.254Z,20.77
2023-01-17T20:36:10.531Z,23.53
2023-01-17T20:38:49.254Z,23.73
2023-01-17T20:41:19.608Z,38.10
2023-01-17T20:43:49.507Z,44.03
2023-01-17T20:46:18.700Z,38.50
2023-01-17T20:48:49.148Z,39.10
2023-01-17T20:51:18.079Z,46.37
2023-01-17T20:53:47.256Z,92.40
2023-01-17T20:56:17.235Z,92.13
2023-01-17T20:58:45.421Z,86.10
2023-01-17T21:01:20.013Z,66.77
2023-01-17T21:03:52.999Z,59.33
2023-01-17T21:06:22.583Z,47.33
2023-01-17T21:08:50.948Z,36.77
2023-01-17T21:11:22.110Z,39.60
2023-01-17T21:13:51.208Z,33.47
2023-01-17T21:16:21.262Z,33.93
2023-01-17T21:18:51.743Z,26.77
2023-01-17T21:21:22.861Z,29.93
2023-01-17T21:23:52.170Z,29.40
2023-01-17T21:26:21.310Z,31.23
2023-01-17T21:28:50.661Z,31.43
2023-01-17T21:31:22.987Z,45.43
2023-01-17T21:33:54.138Z,58.13
2023-01-17T21:36:24.089Z,51.80
2023-01-17T21:38:54.684Z,46.33
2023-01-17T21:41:24.463Z,48.77
2023-01-17T21:43:55.687Z,50.30
2023-01-17T21:46:23.863Z,47.17
2023-01-17T21:48:53.287Z,43.77
2023-01-17T21:51:21.755Z,46.87
2023-01-17T21:53:49.837Z,43.03
2023-01-17T21:56:35.257Z,41.77
2023-01-17T21:59:03.385Z,43.50
2023-01-17T22:01:34.025Z,41.47
2023-01-17T22:04:04.651Z,38.27
2023-01-17T22:06:35.265Z,39.30
2023-01-17T22:09:04.919Z,40.20
2023-01-17T22:11:32.911Z,39.47
2023-01-17T22:14:02.534Z,37.03
2023-01-17T22:16:30.489Z,37.80
2023-01-17T22:18:59.192Z,42.57
2023-01-17T22:21:30.039Z,33.63
2023-01-17T22:23:59.898Z,39.50
2023-01-17T22:26:30.070Z,40.97
2023-01-17T22:29:02.415Z,40.00
2023-01-17T22:31:30.738Z,40.03
2023-01-17T22:34:00.563Z,39.93
2023-01-17T22:36:30.784Z,46.07
2023-01-17T22:38:58.848Z,41.50
2023-01-17T22:41:29.764Z,38.00
2023-01-17T22:44:02.065Z,41.90
2023-01-17T22:46:31.630Z,41.17
2023-01-17T22:49:00.611Z,40.83
2023-01-17T22:51:30.333Z,37.73
2023-01-17T22:53:59.756Z,42.73
2023-01-17T22:56:30.025Z,39.23
2023-01-17T22:58:59.020Z,38.40
2023-01-17T23:01:28.811Z,37.97
2023-01-17T23:03:58.480Z,32.90
2023-01-17T23:06:28.273Z,34.07
2023-01-17T23:09:00.405Z,37.10
2023-01-17T23:11:43.700Z,34.43
2023-01-17T23:14:17.075Z,39.53
2023-01-17T23:17:04.479Z,35.00
2023-01-17T23:19:35.730Z,33.10
2023-01-17T23:22:16.814Z,29.60
2023-01-17T23:24:48.873Z,33.20
2023-01-17T23:27:37.201Z,29.27
2023-01-17T23:30:08.178Z,30.53
2023-01-17T23:32:36.200Z,27.53
2023-01-17T23:35:04.471Z,31.37
2023-01-17T23:37:50.142Z,25.90
2023-01-17T23:40:20.366Z,27.27
2023-01-17T23:43:06.030Z,26.40
2023-01-17T23:45:35.839Z,28.50
2023-01-17T23:48:05.634Z,24.60
2023-01-17T23:50:34.405Z,26.47
2023-01-17T23:53:06.848Z,26.97
2023-01-17T23:55:38.612Z,24.90
2023-01-17T23:58:07.884Z,25.40
